www.bettendroffer.lu
Wetterdaten: Woche 18.04.11 - 24.04.11 (KW16)
Datum Zeit Temp. 1 ext. Temp. 3 Feuchte 1 Feuchte 3 Luftdruck Regen Wind Richtung Taupunkt Windchill
18.04.2011 00:00 11,6 C 4,1 C 20 % 41 % 1017 hPa 0,0 l/m 0,0 km/h (0 Bft) - - -10,6 C 11,6 C
18.04.2011 01:00 11,6 C 3,0 C 20 % 47 % 1017 hPa 0,0 l/m 0,0 km/h (0 Bft) - - -10,6 C 11,6 C
18.04.2011 02:00 3,2 C 2,1 C 95 % 50 % 1016 hPa 0,0 l/m 0,0 km/h (0 Bft) - - 2,4 C 3,2 C
18.04.2011 03:00 2,3 C 1,3 C 95 % 52 % 1016 hPa 0,0 l/m 0,0 km/h (0 Bft) - - 1,6 C 2,3 C
18.04.2011 04:00 1,6 C 0,8 C 95 % 56 % 1016 hPa 0,0 l/m 0,0 km/h (0 Bft) - - 0,9 C 1,6 C
18.04.2011 05:00 1,6 C 0,4 C 95 % 58 % 1015 hPa 0,0 l/m 0,0 km/h (0 Bft) - - 0,9 C 1,6 C
18.04.2011 06:00 1,6 C 0,1 C 95 % 60 % 1015 hPa 0,0 l/m 0,0 km/h (0 Bft) - - 0,9 C 1,6 C
18.04.2011 07:00 1,6 C 0,4 C 95 % 62 % 1016 hPa 0,0 l/m 0,0 km/h (0 Bft) - - 0,9 C 1,6 C
18.04.2011 08:00 3,1 C 4,2 C 37 % 58 % 1016 hPa 0,0 l/m 0,0 km/h (0 Bft) - - -10,2 C 3,1 C
18.04.2011 09:00 7,3 C 12,6 C 28 % 28 % 1015 hPa 0,0 l/m 0,0 km/h (0 Bft) - - -10,1 C 7,3 C
18.04.2011 10:00 11,9 C 26,5 C 20 % 20 % 1015 hPa 0,0 l/m 0,0 km/h (0 Bft) - - -10,3 C 11,9 C
18.04.2011 11:00 15,9 C 29,0 C 20 % 20 % 1014 hPa 0,0 l/m 0,0 km/h (0 Bft) - - -7,0 C 15,9 C
18.04.2011 12:00 18,5 C 27,1 C 20 % 20 % 1014 hPa 0,0 l/m 0,0 km/h (0 Bft) - - -4,9 C 18,5 C
18.04.2011 13:00 27,6 C 29,6 C 20 % 20 % 1013 hPa 0,0 l/m 0,0 km/h (0 Bft) - - 2,6 C 27,6 C
18.04.2011 14:00 26,9 C 26,6 C 20 % 20 % 1012 hPa 0,0 l/m 0,0 km/h (0 Bft) - - 2,0 C 26,9 C
18.04.2011 15:00 26,3 C 31,1 C 20 % 20 % 1012 hPa 0,0 l/m 0,0 km/h (0 Bft) - - 1,6 C 26,3 C
18.04.2011 16:00 28,9 C 26,8 C 20 % 20 % 1011 hPa 0,0 l/m 0,0 km/h (0 Bft) - - 3,6 C 28,9 C
18.04.2011 17:00 25,5 C 22,6 C 20 % 20 % 1010 hPa 0,0 l/m 0,0 km/h (0 Bft) - - 0,9 C 25,5 C
18.04.2011 18:00 22,2 C 20,5 C 20 % 20 % 1010 hPa 0,0 l/m 0,0 km/h (0 Bft) - - -1,8 C 22,2 C
18.04.2011 19:00 19,5 C 19,0 C 20 % 20 % 1010 hPa 0,0 l/m 0,0 km/h (0 Bft) - - -4,1 C 19,5 C
18.04.2011 20:00 16,7 C 16,4 C 20 % 20 % 1010 hPa 0,0 l/m 0,0 km/h (0 Bft) - - -6,3 C 16,7 C
18.04.2011 21:00 13,0 C 12,1 C 20 % 27 % 1010 hPa 0,0 l/m 0,0 km/h (0 Bft) - - -9,4 C 13,0 C
18.04.2011 22:00 11,8 C 10,0 C 20 % 37 % 1010 hPa 0,0 l/m 0,0 km/h (0 Bft) - - -10,4 C 11,8 C
18.04.2011 23:00 10,8 C 9,2 C 58 % 43 % 1010 hPa 0,0 l/m 0,0 km/h (0 Bft) - - -0,7 C 10,8 C
19.04.2011 00:00 8,9 C 7,8 C 95 % 46 % 1011 hPa 0,0 l/m 0,0 km/h (0 Bft) - - 8,1 C 8,9 C
19.04.2011 01:00 8,9 C 6,6 C 95 % 48 % 1011 hPa 0,0 l/m 0,0 km/h (0 Bft) - - 8,1 C 8,9 C
19.04.2011 02:00 8,9 C 5,4 C 95 % 49 % 1011 hPa 0,0 l/m 0,0 km/h (0 Bft) - - 8,1 C 8,9 C
19.04.2011 03:00 5,4 C 4,5 C 95 % 50 % 1010 hPa 0,0 l/m 0,0 km/h (0 Bft) - - 4,7 C 5,4 C
19.04.2011 04:00 4,8 C 3,7 C 95 % 54 % 1010 hPa 0,0 l/m 0,0 km/h (0 Bft) - - 4,1 C 4,8 C
19.04.2011 05:00 4,8 C 2,9 C 95 % 58 % 1010 hPa 0,0 l/m 0,0 km/h (0 Bft) - - 4,1 C 4,8 C
19.04.2011 06:00 4,8 C 2,3 C 95 % 59 % 1010 hPa 0,0 l/m 0,0 km/h (0 Bft) - - 4,1 C 4,8 C
19.04.2011 07:00 4,8 C 2,5 C 95 % 61 % 1010 hPa 0,0 l/m 0,0 km/h (0 Bft) - - 4,1 C 4,8 C
19.04.2011 08:00 5,1 C 5,5 C 66 % 58 % 1011 hPa 0,0 l/m 0,0 km/h (0 Bft) - - -2,2 C 5,1 C
19.04.2011 09:00 7,7 C 12,2 C 32 % 32 % 1011 hPa 0,0 l/m 0,0 km/h (0 Bft) - - -8,2 C 7,7 C
19.04.2011 10:00 11,8 C 24,1 C 20 % 20 % 1011 hPa 0,0 l/m 0,0 km/h (0 Bft) - - -10,4 C 11,8 C
19.04.2011 11:00 16,3 C 33,1 C 20 % 20 % 1011 hPa 0,0 l/m 0,0 km/h (0 Bft) - - -6,7 C 16,3 C
19.04.2011 12:00 20,9 C 30,6 C 20 % 20 % 1010 hPa 0,0 l/m 0,0 km/h (0 Bft) - - -2,9 C 20,9 C
19.04.2011 13:00 30,0 C 31,5 C 20 % 20 % 1010 hPa 0,0 l/m 0,0 km/h (0 Bft) - - 4,6 C 30,0 C
19.04.2011 14:00 26,0 C 25,5 C 20 % 20 % 1009 hPa 0,0 l/m 0,0 km/h (0 Bft) - - 1,3 C 26,0 C
19.04.2011 15:00 25,1 C 28,4 C 20 % 20 % 1009 hPa 0,0 l/m 0,0 km/h (0 Bft) - - 0,6 C 25,1 C
19.04.2011 16:00 27,7 C 25,7 C 20 % 20 % 1008 hPa 0,0 l/m 0,0 km/h (0 Bft) - - 2,7 C 27,7 C
19.04.2011 17:00 29,3 C 25,1 C 20 % 20 % 1008 hPa 0,0 l/m 0,0 km/h (0 Bft) - - 4,0 C 29,3 C
19.04.2011 18:00 23,4 C 21,8 C 20 % 20 % 1008 hPa 0,0 l/m 0,0 km/h (0 Bft) - - -0,8 C 23,4 C
19.04.2011 19:00 20,1 C 19,5 C 20 % 20 % 1008 hPa 0,0 l/m 0,0 km/h (0 Bft) - - -3,5 C 20,1 C
19.04.2011 20:00 17,0 C 16,7 C 20 % 21 % 1008 hPa 0,0 l/m 0,0 km/h (0 Bft) - - -6,1 C 17,0 C
19.04.2011 21:00 13,7 C 13,4 C 20 % 27 % 1009 hPa 0,0 l/m 0,0 km/h (0 Bft) - - -8,8 C 13,7 C
19.04.2011 22:00 11,5 C 10,8 C 20 % 37 % 1009 hPa 0,0 l/m 0,0 km/h (0 Bft) - - -10,6 C 11,5 C
19.04.2011 23:00 10,4 C 9,0 C 95 % 41 % 1010 hPa 0,0 l/m 0,0 km/h (0 Bft) - - 9,6 C 10,4 C
20.04.2011 00:00 10,4 C 7,8 C 95 % 44 % 1010 hPa 0,0 l/m 0,0 km/h (0 Bft) - - 9,6 C 10,4 C
20.04.2011 01:00 8,6 C 6,3 C 95 % 47 % 1010 hPa 0,0 l/m 0,0 km/h (0 Bft) - - 7,9 C 8,6 C
20.04.2011 02:00 6,9 C 5,2 C 95 % 52 % 1010 hPa 0,0 l/m 0,0 km/h (0 Bft) - - 6,2 C 6,9 C
20.04.2011 03:00 5,2 C 4,3 C 63 % 55 % 1010 hPa 0,0 l/m 0,0 km/h (0 Bft) - - -3,3 C 5,2 C
20.04.2011 04:00 4,2 C 3,4 C 32 % 58 % 1010 hPa 0,0 l/m 0,0 km/h (0 Bft) - - -11,0 C 4,2 C
20.04.2011 05:00 3,6 C 2,7 C 35 % 60 % 1010 hPa 0,0 l/m 0,0 km/h (0 Bft) - - -10,4 C 3,6 C
20.04.2011 06:00 3,1 C 2,2 C 37 % 62 % 1010 hPa 0,0 l/m 0,0 km/h (0 Bft) - - -10,2 C 3,1 C
20.04.2011 07:00 3,2 C 2,5 C 38 % 64 % 1010 hPa 0,0 l/m 0,0 km/h (0 Bft) - - -9,8 C 3,2 C
20.04.2011 08:00 4,7 C 5,6 C 40 % 62 % 1011 hPa 0,0 l/m 0,0 km/h (0 Bft) - - -7,9 C 4,7 C
20.04.2011 09:00 7,8 C 12,2 C 37 % 37 % 1010 hPa 0,0 l/m 0,0 km/h (0 Bft) - - -6,1 C 7,8 C
20.04.2011 10:00 12,1 C 24,5 C 23 % 20 % 1010 hPa 0,0 l/m 0,0 km/h (0 Bft) - - -8,4 C 12,1 C
20.04.2011 11:00 16,9 C 34,5 C 20 % 20 % 1010 hPa 0,0 l/m 0,0 km/h (0 Bft) - - -6,2 C 16,9 C
20.04.2011 12:00 20,7 C 30,2 C 20 % 20 % 1010 hPa 0,0 l/m 0,0 km/h (0 Bft) - - -3,1 C 20,7 C
20.04.2011 13:00 29,2 C 28,8 C 20 % 20 % 1010 hPa 0,0 l/m 0,0 km/h (0 Bft) - - 3,9 C 29,2 C
20.04.2011 14:00 27,6 C 29,5 C 20 % 20 % 1009 hPa 0,0 l/m 0,0 km/h (0 Bft) - - 2,6 C 27,6 C
20.04.2011 15:00 28,2 C 35,2 C 20 % 20 % 1009 hPa 0,0 l/m 0,0 km/h (0 Bft) - - 3,1 C 28,2 C
20.04.2011 16:00 30,1 C 29,3 C 20 % 20 % 1008 hPa 0,0 l/m 0,0 km/h (0 Bft) - - 4,7 C 30,1 C
20.04.2011 17:00 28,6 C 25,5 C 20 % 20 % 1008 hPa 0,0 l/m 0,0 km/h (0 Bft) - - 3,5 C 28,6 C
20.04.2011 18:00 24,2 C 22,8 C 20 % 20 % 1008 hPa 0,0 l/m 0,0 km/h (0 Bft) - - -0,2 C 24,2 C
20.04.2011 19:00 21,5 C 20,7 C 20 % 20 % 1008 hPa 0,0 l/m 0,0 km/h (0 Bft) - - -2,4 C 21,5 C
20.04.2011 20:00 17,9 C 17,0 C 20 % 21 % 1009 hPa 0,0 l/m 0,0 km/h (0 Bft) - - -5,4 C 17,9 C
20.04.2011 21:00 14,0 C 13,5 C 20 % 28 % 1009 hPa 0,0 l/m 0,0 km/h (0 Bft) - - -8,5 C 14,0 C
20.04.2011 22:00 12,0 C 10,9 C 20 % 36 % 1009 hPa 0,0 l/m 0,0 km/h (0 Bft) - - -10,2 C 12,0 C
20.04.2011 23:00 11,8 C 9,1 C 20 % 41 % 1010 hPa 0,0 l/m 0,0 km/h (0 Bft) - - -10,4 C 11,8 C
21.04.2011 00:00 11,8 C 7,8 C 20 % 47 % 1010 hPa 0,0 l/m 0,0 km/h (0 Bft) - - -10,4 C 11,8 C
21.04.2011 01:00 11,8 C 6,8 C 20 % 51 % 1010 hPa 0,0 l/m 0,0 km/h (0 Bft) - - -10,4 C 11,8 C
21.04.2011 02:00 7,4 C 6,0 C 95 % 53 % 1010 hPa 0,0 l/m 0,0 km/h (0 Bft) - - 6,7 C 7,4 C
21.04.2011 03:00 6,3 C 5,4 C 31 % 55 % 1010 hPa 0,0 l/m 0,0 km/h (0 Bft) - - -9,6 C 6,3 C
21.04.2011 04:00 5,9 C 4,9 C 32 % 56 % 1010 hPa 0,0 l/m 0,0 km/h (0 Bft) - - -9,5 C 5,9 C
21.04.2011 05:00 5,1 C 4,3 C 35 % 59 % 1011 hPa 0,0 l/m 0,0 km/h (0 Bft) - - -9,1 C 5,1 C
21.04.2011 06:00 4,6 C 3,8 C 38 % 63 % 1011 hPa 0,0 l/m 0,0 km/h (0 Bft) - - -8,7 C 4,6 C
21.04.2011 07:00 4,7 C 4,1 C 39 % 65 % 1011 hPa 0,0 l/m 0,0 km/h (0 Bft) - - -8,3 C 4,7 C
21.04.2011 08:00 6,4 C 7,5 C 39 % 61 % 1011 hPa 0,0 l/m 0,0 km/h (0 Bft) - - -6,6 C 6,4 C
21.04.2011 09:00 9,1 C 13,1 C 36 % 37 % 1011 hPa 0,0 l/m 0,0 km/h (0 Bft) - - -5,4 C 9,1 C
21.04.2011 10:00 12,7 C 25,0 C 24 % 20 % 1011 hPa 0,0 l/m 0,0 km/h (0 Bft) - - -7,5 C 12,7 C
21.04.2011 11:00 17,2 C 33,2 C 20 % 20 % 1010 hPa 0,0 l/m 0,0 km/h (0 Bft) - - -5,9 C 17,2 C
21.04.2011 12:00 21,4 C 31,4 C 20 % 20 % 1010 hPa 0,0 l/m 0,0 km/h (0 Bft) - - -2,5 C 21,4 C
21.04.2011 13:00 30,0 C 28,5 C 20 % 20 % 1009 hPa 0,0 l/m 0,0 km/h (0 Bft) - - 4,6 C 30,0 C
21.04.2011 14:00 29,6 C 30,5 C 20 % 20 % 1009 hPa 0,0 l/m 0,0 km/h (0 Bft) - - 4,2 C 29,6 C
21.04.2011 15:00 26,8 C 29,1 C 20 % 20 % 1008 hPa 0,0 l/m 0,0 km/h (0 Bft) - - 1,9 C 26,8 C
21.04.2011 16:00 28,3 C 27,3 C 20 % 20 % 1008 hPa 0,0 l/m 0,0 km/h (0 Bft) - - 3,2 C 28,3 C
21.04.2011 17:00 30,1 C 27,1 C 20 % 20 % 1007 hPa 0,0 l/m 0,0 km/h (0 Bft) - - 4,7 C 30,1 C
21.04.2011 18:00 25,8 C 24,0 C 20 % 20 % 1007 hPa 0,0 l/m 0,0 km/h (0 Bft) - - 1,1 C 25,8 C
21.04.2011 19:00 23,0 C 22,5 C 20 % 20 % 1007 hPa 0,0 l/m 0,0 km/h (0 Bft) - - -1,2 C 23,0 C
21.04.2011 20:00 21,0 C 20,8 C 20 % 20 % 1007 hPa 0,0 l/m 0,0 km/h (0 Bft) - - -2,8 C 21,0 C
21.04.2011 21:00 17,9 C 17,4 C 20 % 22 % 1007 hPa 0,0 l/m 0,0 km/h (0 Bft) - - -5,4 C 17,9 C
21.04.2011 22:00 14,5 C 14,0 C 20 % 31 % 1007 hPa 0,0 l/m 0,0 km/h (0 Bft) - - -8,1 C 14,5 C
21.04.2011 23:00 12,4 C 11,7 C 20 % 38 % 1007 hPa 0,0 l/m 0,0 km/h (0 Bft) - - -9,9 C 12,4 C
22.04.2011 00:00 10,7 C 10,1 C 20 % 44 % 1007 hPa 0,0 l/m 0,0 km/h (0 Bft) - - -11,3 C 10,7 C
22.04.2011 01:00 9,7 C 8,9 C 24 % 49 % 1007 hPa 0,0 l/m 0,0 km/h (0 Bft) - - -10,2 C 9,7 C
22.04.2011 02:00 9,8 C 9,6 C 30 % 52 % 1006 hPa 0,0 l/m 0,0 km/h (0 Bft) - - -6,9 C 9,8 C
22.04.2011 03:00 10,6 C 10,3 C 32 % 51 % 1006 hPa 0,0 l/m 0,0 km/h (0 Bft) - - -5,6 C 10,6 C
22.04.2011 04:00 10,9 C 10,7 C 31 % 51 % 1006 hPa 0,0 l/m 0,0 km/h (0 Bft) - - -5,7 C 10,9 C
22.04.2011 05:00 10,6 C 10,2 C 31 % 51 % 1005 hPa 0,0 l/m 0,0 km/h (0 Bft) - - -6,0 C 10,6 C
22.04.2011 06:00 9,6 C 9,1 C 31 % 53 % 1005 hPa 0,0 l/m 0,0 km/h (0 Bft) - - -6,8 C 9,6 C
22.04.2011 07:00 8,9 C 8,5 C 33 % 56 % 1005 hPa 0,0 l/m 0,0 km/h (0 Bft) - - -6,7 C 8,9 C
22.04.2011 08:00 10,4 C 11,4 C 34 % 52 % 1006 hPa 0,0 l/m 0,0 km/h (0 Bft) - - -5,0 C 10,4 C
22.04.2011 09:00 12,4 C 15,9 C 29 % 35 % 1006 hPa 0,0 l/m 0,0 km/h (0 Bft) - - -5,1 C 12,4 C
22.04.2011 10:00 16,2 C 26,0 C 22 % 21 % 1005 hPa 0,0 l/m 0,0 km/h (0 Bft) - - -5,6 C 16,2 C
22.04.2011 11:00 20,0 C 33,9 C 20 % 20 % 1005 hPa 0,0 l/m 0,0 km/h (0 Bft) - - -3,7 C 20,0 C
22.04.2011 12:00 22,4 C 30,2 C 20 % 20 % 1005 hPa 0,0 l/m 0,0 km/h (0 Bft) - - -1,7 C 22,4 C
22.04.2011 13:00 30,7 C 30,7 C 20 % 20 % 1004 hPa 0,0 l/m 0,0 km/h (0 Bft) - - 5,1 C 30,7 C
22.04.2011 14:00 30,5 C 30,5 C 20 % 20 % 1004 hPa 0,0 l/m 0,0 km/h (0 Bft) - - 4,9 C 30,5 C
22.04.2011 15:00 31,0 C 34,3 C 20 % 20 % 1003 hPa 0,0 l/m 0,0 km/h (0 Bft) - - 5,4 C 31,0 C
22.04.2011 16:00 33,5 C 31,3 C 20 % 20 % 1002 hPa 0,0 l/m 0,0 km/h (0 Bft) - - 7,4 C 33,5 C
22.04.2011 17:00 28,3 C 25,5 C 20 % 20 % 1002 hPa 0,0 l/m 0,0 km/h (0 Bft) - - 3,2 C 28,3 C
22.04.2011 18:00 27,4 C 24,8 C 20 % 20 % 1002 hPa 0,0 l/m 0,0 km/h (0 Bft) - - 2,4 C 27,4 C
22.04.2011 19:00 24,0 C 22,6 C 20 % 20 % 1002 hPa 0,0 l/m 0,0 km/h (0 Bft) - - -0,4 C 24,0 C
22.04.2011 20:00 19,4 C 18,8 C 20 % 21 % 1002 hPa 0,0 l/m 0,0 km/h (0 Bft) - - -4,1 C 19,4 C
22.04.2011 21:00 15,9 C 14,9 C 20 % 28 % 1003 hPa 0,0 l/m 0,0 km/h (0 Bft) - - -7,1 C 15,9 C
22.04.2011 22:00 13,4 C 12,8 C 20 % 37 % 1004 hPa 0,0 l/m 0,0 km/h (0 Bft) - - -9,0 C 13,4 C
22.04.2011 23:00 12,1 C 11,3 C 20 % 42 % 1003 hPa 0,0 l/m 0,0 km/h (0 Bft) - - -10,1 C 12,1 C
23.04.2011 00:00 11,1 C 10,4 C 20 % 47 % 1004 hPa 0,0 l/m 0,0 km/h (0 Bft) - - -10,9 C 11,1 C
23.04.2011 01:00 12,2 C 12,2 C 27 % 46 % 1004 hPa 0,0 l/m 0,0 km/h (0 Bft) - - -6,2 C 12,2 C
23.04.2011 02:00 14,2 C 14,4 C 23 % 39 % 1004 hPa 1,1 l/m 0,0 km/h (0 Bft) - - -7,0 C 14,2 C
23.04.2011 03:00 14,4 C 13,8 C 29 % 47 % 1003 hPa 0,0 l/m 0,0 km/h (0 Bft) - - -3,6 C 14,4 C
23.04.2011 04:00 13,8 C 13,2 C 29 % 49 % 1003 hPa 0,0 l/m 0,0 km/h (0 Bft) - - -3,9 C 13,8 C
23.04.2011 05:00 12,0 C 11,5 C 34 % 53 % 1003 hPa 0,0 l/m 0,0 km/h (0 Bft) - - -3,3 C 12,0 C
23.04.2011 06:00 10,6 C 9,9 C 37 % 58 % 1004 hPa 0,0 l/m 0,0 km/h (0 Bft) - - -3,7 C 10,6 C
23.04.2011 07:00 9,9 C 9,4 C 40 % 64 % 1004 hPa 0,0 l/m 0,0 km/h (0 Bft) - - -3,2 C 9,9 C
23.04.2011 08:00 11,2 C 12,0 C 41 % 63 % 1005 hPa 0,0 l/m 0,0 km/h (0 Bft) - - -1,6 C 11,2 C
23.04.2011 09:00 14,0 C 18,1 C 38 % 39 % 1005 hPa 0,0 l/m 0,0 km/h (0 Bft) - - -0,1 C 14,0 C
23.04.2011 10:00 17,9 C 28,6 C 22 % 20 % 1005 hPa 0,0 l/m 0,0 km/h (0 Bft) - - -4,5 C 17,9 C
23.04.2011 11:00 20,9 C 35,8 C 20 % 20 % 1005 hPa 0,0 l/m 0,0 km/h (0 Bft) - - -2,9 C 20,9 C
23.04.2011 12:00 23,3 C 31,6 C 20 % 20 % 1005 hPa 0,0 l/m 0,0 km/h (0 Bft) - - -0,9 C 23,3 C
23.04.2011 13:00 34,6 C 33,0 C 20 % 20 % 1004 hPa 0,0 l/m 0,0 km/h (0 Bft) - - 8,3 C 34,6 C
23.04.2011 14:00 31,3 C 32,3 C 20 % 20 % 1004 hPa 0,0 l/m 0,0 km/h (0 Bft) - - 5,6 C 31,3 C
23.04.2011 15:00 33,4 C 36,0 C 20 % 20 % 1004 hPa 0,0 l/m 0,0 km/h (0 Bft) - - 7,3 C 33,4 C
23.04.2011 16:00 25,9 C 25,5 C 20 % 20 % 1004 hPa 0,0 l/m 0,0 km/h (0 Bft) - - 1,2 C 25,9 C
23.04.2011 17:00 20,2 C 20,0 C 20 % 29 % 1004 hPa 0,0 l/m 0,0 km/h (0 Bft) - - -3,5 C 20,2 C
Min-Datum _ 18.04.11 18.04.11 18.04.11 18.04.11 22.04.11 - 18.04.11 - 22.04.11 18.04.11
_ Min-Zeit 04:11 06:41 00:11 10:11 16:41 - 00:11 - 00:41 04:11
Minimum _ 1,6 C 0,0 C 20 % 20 % 1002 hPa - 0,0 km/h (0 Bft) - -11,6 C 1,6 C
Max-Datum _ 22.04.11 23.04.11 18.04.11 20.04.11 18.04.11 23.04.11 18.04.11 - 19.04.11 22.04.11
_ Max-Zeit 16:41 15:11 02:11 07:41 00:11 02:41 00:11 - 23:11 16:41
Maximum _ 35,5 C 38,2 C 95 % 65 % 1017 hPa 1,1 l/m 0,0 km/h
- - (0 Bft)
- 9,6 C 35,5 C
Durchschnitt _ 15,7 C 16,8 C 35 % 35 % 1009 hPa #1,1 l/m 0,0 km/h (0 Bft) - - -2,6 C 15,7 C
©2001-2010 Bettendroffer Claude